Morforte De Lemos, Spain
Current Conditions -  °F | °C
As of 3:30 AM on Wednesday 22 Oct 2014 (Local Time) from LEST Reporting Station
Moderate Fog Moderate Fog  
Wind Chill: 57°   Ceiling: 100
Heat Index: 57°   Visibility: 0.18mi
Dew Point: 57°   Wind: 2mph
Humidity: 100%   Direction: NA
Pressure: 30.42"   Gusts: NA
Location:  42.52°N, 7.5°W
Report Text: LEST 220130Z VRB02KT 0300 R17/0325N R35/0250N FG VV001 14/14 Q1030 TEMPO BKN001
Loading
Personal Weather Stations






























Interactive Weather Map New forecast layout! Learn more

10-Day Weather Forecast

Advertisements
Track Severe Weather on mobile